createdAt,value
2017-02-27T00:00:31.760Z,-0.24
2017-02-27T00:01:31.757Z,-0.21
2017-02-27T00:02:31.355Z,-0.23
2017-02-27T00:03:31.722Z,-0.24
2017-02-27T00:04:31.699Z,-0.17
2017-02-27T00:05:31.699Z,-0.23
2017-02-27T00:06:31.310Z,-0.12
2017-02-27T00:07:31.669Z,-0.17
2017-02-27T00:08:31.642Z,-0.17
2017-02-27T00:09:31.644Z,-0.16
2017-02-27T00:10:31.605Z,-0.16
2017-02-27T00:11:31.605Z,-0.02
2017-02-27T00:12:31.591Z,-0.05
2017-02-27T00:13:31.564Z,-0.13
2017-02-27T00:14:31.157Z,-0.05
2017-02-27T00:15:31.520Z,-0.17
2017-02-27T00:16:31.125Z,-0.09
2017-02-27T00:17:31.503Z,-0.13
2017-02-27T00:18:31.487Z,-0.09
2017-02-27T00:19:31.472Z,-0.06
2017-02-27T00:20:31.451Z,-0.09
2017-02-27T00:21:31.047Z,-0.13
2017-02-27T00:22:31.405Z,-0.09
2017-02-27T00:23:31.018Z,-0.14
2017-02-27T00:24:31.011Z,-0.16
2017-02-27T00:25:31.369Z,-0.17
2017-02-27T00:26:30.963Z,-0.17
2017-02-27T00:27:30.944Z,-0.24
2017-02-27T00:28:31.321Z,-0.32
2017-02-27T00:29:31.316Z,-0.19
2017-02-27T00:30:31.279Z,-0.3
2017-02-27T00:31:31.267Z,-0.2
2017-02-27T00:32:31.236Z,-0.32
2017-02-27T00:33:31.241Z,-0.26
2017-02-27T00:34:31.211Z,-0.34
2017-02-27T00:35:31.203Z,-0.27
2017-02-27T00:36:30.792Z,-0.26
2017-02-27T00:37:30.789Z,-0.34
2017-02-27T00:38:31.146Z,-0.31
2017-02-27T00:39:31.125Z,-0.35
2017-02-27T00:40:31.106Z,-0.26
2017-02-27T00:41:31.098Z,-0.39
2017-02-27T00:42:31.103Z,-0.39
2017-02-27T00:43:30.694Z,-0.3
2017-02-27T00:44:31.066Z,-0.32
2017-02-27T00:45:31.036Z,-0.35
2017-02-27T00:46:31.028Z,-0.44
2017-02-27T00:47:31.009Z,-0.27
2017-02-27T00:48:30.981Z,-0.3
2017-02-27T00:49:31.011Z,-0.31
2017-02-27T00:50:30.938Z,-0.34
2017-02-27T00:51:30.936Z,-0.27
2017-02-27T00:52:30.944Z,-0.34
2017-02-27T00:53:30.914Z,-0.37
2017-02-27T00:54:30.884Z,-0.39
2017-02-27T00:55:30.887Z,-0.37
2017-02-27T00:56:30.839Z,-0.38
2017-02-27T00:57:30.447Z,-0.47
2017-02-27T00:58:30.804Z,-0.38
2017-02-27T00:59:30.797Z,-0.41
2017-02-27T01:00:30.780Z,-0.39
2017-02-27T01:01:30.384Z,-0.39
2017-02-27T01:02:30.361Z,-0.42
2017-02-27T01:03:30.769Z,-0.38
2017-02-27T01:04:30.731Z,-0.37
2017-02-27T01:05:30.703Z,-0.27
2017-02-27T01:06:30.683Z,-0.3
2017-02-27T01:07:30.656Z,-0.37
2017-02-27T01:08:30.677Z,-0.41
2017-02-27T01:09:30.626Z,-0.31
2017-02-27T01:10:30.636Z,-0.21
2017-02-27T01:11:30.615Z,-0.31
2017-02-27T01:12:30.211Z,-0.39
2017-02-27T01:13:30.561Z,-0.37
2017-02-27T01:14:30.561Z,-0.37
2017-02-27T01:15:30.162Z,-0.44
2017-02-27T01:16:30.510Z,-0.37
2017-02-27T01:17:30.514Z,-0.34
2017-02-27T01:18:30.492Z,-0.23
2017-02-27T01:19:30.091Z,-0.23
2017-02-27T01:20:30.452Z,-0.23
2017-02-27T01:21:30.427Z,-0.17
2017-02-27T01:22:30.036Z,-0.16
2017-02-27T01:23:30.418Z,-0.13
2017-02-27T01:24:30.430Z,-0.09
2017-02-27T01:25:30.386Z,-0.08
2017-02-27T01:26:30.359Z,-0.12
2017-02-27T01:27:30.344Z,-0.12
2017-02-27T01:28:30.316Z,-0.08
2017-02-27T01:29:30.319Z,-0.06
2017-02-27T01:30:30.293Z,-0.12
2017-02-27T01:31:30.270Z,-0.03
2017-02-27T01:32:30.268Z,-0.06
2017-02-27T01:33:30.334Z,-0.16
2017-02-27T01:34:30.233Z,-0.02
2017-02-27T01:38:18.398Z,-0.08
2017-02-27T01:46:50.485Z,-0.13
2017-02-27T01:52:43.554Z,-0.03
2017-02-27T01:52:54.120Z,-0.01
2017-02-27T01:53:54.096Z,-0.08
2017-02-27T01:54:54.081Z,-0.03
2017-02-27T01:55:54.050Z,0.07
2017-02-27T01:56:54.045Z,0.13
2017-02-27T01:57:54.019Z,0.12
2017-02-27T01:58:53.622Z,0.08
2017-02-27T01:59:53.996Z,-0.05
2017-02-27T02:00:53.994Z,-0.01
2017-02-27T02:01:53.974Z,0.04
2017-02-27T02:02:53.964Z,0.13
2017-02-27T02:03:53.545Z,0.12
2017-02-27T02:04:53.552Z,0.08
2017-02-27T02:05:53.905Z,0.12
2017-02-27T02:06:53.870Z,0.15
2017-02-27T02:07:53.893Z,0.16
2017-02-27T02:08:53.853Z,0.26
2017-02-27T02:09:53.839Z,0.19
2017-02-27T02:10:53.847Z,0.19
2017-02-27T02:11:53.423Z,0.17
2017-02-27T02:12:53.398Z,0.19
2017-02-27T02:13:53.787Z,0.31
2017-02-27T02:14:53.750Z,0.2
2017-02-27T02:15:53.751Z,0.1
2017-02-27T02:16:53.343Z,0.04
2017-02-27T02:17:53.722Z,0.07
2017-02-27T02:18:53.695Z,0.15
2017-02-27T02:19:52.907Z,0.15
2017-02-27T02:20:52.892Z,0.16
2017-02-27T02:21:53.270Z,0.08
2017-02-27T02:22:52.881Z,0.16
2017-02-27T02:23:52.853Z,0.08
2017-02-27T02:24:53.219Z,0.12
2017-02-27T02:25:53.591Z,0.19
2017-02-27T02:26:53.592Z,0.15
2017-02-27T02:27:53.567Z,0.2
2017-02-27T02:28:53.552Z,0.22
2017-02-27T02:29:53.138Z,0.16
2017-02-27T02:30:53.515Z,0.23
2017-02-27T02:31:53.537Z,0.31
2017-02-27T02:32:53.116Z,0.35
2017-02-27T02:33:53.475Z,0.33
2017-02-27T02:34:53.494Z,0.34
2017-02-27T02:35:53.054Z,0.35
2017-02-27T02:36:53.445Z,0.35
2017-02-27T02:37:53.012Z,0.26
2017-02-27T02:38:53.392Z,0.16
2017-02-27T02:39:53.375Z,0.15
2017-02-27T02:40:53.358Z,0.25
2017-02-27T02:41:53.367Z,0.28
2017-02-27T02:42:53.353Z,0.3
2017-02-27T02:43:53.321Z,0.2
2017-02-27T02:44:53.320Z,0.28
2017-02-27T02:45:53.279Z,0.28
2017-02-27T02:46:53.273Z,0.16
2017-02-27T02:47:53.258Z,0.15
2017-02-27T02:48:53.248Z,0.23
2017-02-27T02:49:53.218Z,0.33
2017-02-27T02:50:53.225Z,0.15
2017-02-27T02:51:53.220Z,0.17
2017-02-27T02:52:53.192Z,0.26
2017-02-27T02:53:53.185Z,0.31
2017-02-27T02:54:52.771Z,0.33
2017-02-27T02:55:52.757Z,0.31
2017-02-27T02:56:53.129Z,0.3
2017-02-27T02:57:53.099Z,0.44
2017-02-27T02:58:53.092Z,0.53
2017-02-27T02:59:53.093Z,0.4
2017-02-27T03:00:53.082Z,0.48
2017-02-27T03:01:52.680Z,0.45
2017-02-27T03:02:52.649Z,0.51
2017-02-27T03:03:53.029Z,0.48
2017-02-27T03:04:53.021Z,0.59
2017-02-27T03:05:53.002Z,0.48
2017-02-27T03:06:52.597Z,0.41
2017-02-27T03:07:52.960Z,0.34
2017-02-27T03:08:52.967Z,0.28
2017-02-27T03:09:52.946Z,0.3
2017-02-27T03:10:52.922Z,0.22
2017-02-27T03:11:52.901Z,0.33
2017-02-27T03:12:52.894Z,0.37
2017-02-27T03:13:52.887Z,0.35
2017-02-27T03:14:52.871Z,0.34
2017-02-27T03:15:52.836Z,0.38
2017-02-27T03:16:52.436Z,0.26
2017-02-27T03:17:52.826Z,0.2
2017-02-27T03:18:52.797Z,0.16
2017-02-27T03:19:52.782Z,0.05
2017-02-27T03:20:52.381Z,-0.09
2017-02-27T03:21:52.764Z,-0.14
2017-02-27T03:22:52.731Z,-0.17
2017-02-27T03:23:52.751Z,-0.21
2017-02-27T03:24:52.314Z,-0.17
2017-02-27T03:25:52.301Z,-0.32
2017-02-27T03:26:52.294Z,-0.34
2017-02-27T03:27:52.266Z,-0.39
2017-02-27T03:28:52.256Z,-0.45
2017-02-27T03:29:52.238Z,-0.38
2017-02-27T03:30:52.245Z,-0.38
2017-02-27T03:31:52.609Z,-0.37
2017-02-27T03:32:52.579Z,-0.42
2017-02-27T03:33:52.574Z,-0.44
2017-02-27T03:34:52.549Z,-0.41
2017-02-27T03:35:52.548Z,-0.41
2017-02-27T03:36:52.525Z,-0.42
2017-02-27T03:37:52.516Z,-0.39
2017-02-27T03:38:52.474Z,-0.44
2017-02-27T03:39:52.493Z,-0.55
2017-02-27T03:40:52.442Z,-0.53
2017-02-27T03:41:52.428Z,-0.42
2017-02-27T03:42:52.434Z,-0.45
2017-02-27T03:43:52.394Z,-0.34
2017-02-27T03:44:52.391Z,-0.38
2017-02-27T03:45:52.356Z,-0.41
2017-02-27T03:46:52.352Z,-0.31
2017-02-27T03:47:52.348Z,-0.35
2017-02-27T03:48:52.348Z,-0.47
2017-02-27T03:49:51.926Z,-0.27
2017-02-27T03:50:52.275Z,-0.23
2017-02-27T03:51:52.269Z,-0.31
2017-02-27T03:52:51.865Z,-0.23
2017-02-27T03:53:51.860Z,-0.26
2017-02-27T03:54:51.840Z,-0.39
2017-02-27T03:55:51.817Z,-0.39
2017-02-27T03:56:52.193Z,-0.41
2017-02-27T03:57:52.179Z,-0.39
2017-02-27T03:58:52.142Z,-0.31
2017-02-27T03:59:52.149Z,-0.31
2017-02-27T04:00:52.158Z,-0.2
2017-02-27T04:01:52.091Z,-0.13
2017-02-27T04:02:52.093Z,-0.03
2017-02-27T04:03:52.061Z,0.08
2017-02-27T04:04:52.066Z,0.13
2017-02-27T04:05:52.048Z,0.07
2017-02-27T04:06:52.014Z,0.15
2017-02-27T04:07:52.012Z,0.16
2017-02-27T04:08:51.996Z,0.08
2017-02-27T04:09:51.983Z,0.15
2017-02-27T04:10:51.953Z,0.05
2017-02-27T04:11:51.938Z,0.16
2017-02-27T04:12:51.924Z,0.28
2017-02-27T04:13:51.922Z,0.17
2017-02-27T04:14:51.899Z,0.17
2017-02-27T04:15:51.885Z,0.19
2017-02-27T04:16:51.877Z,0.13
2017-02-27T04:17:51.838Z,0.2
2017-02-27T04:18:51.448Z,0.2
2017-02-27T04:19:51.425Z,0.17
2017-02-27T04:20:51.404Z,0.19
2017-02-27T04:21:51.783Z,0.25
2017-02-27T04:22:51.760Z,0.17
2017-02-27T04:23:51.748Z,0.07
2017-02-27T04:24:51.749Z,0.12
2017-02-27T04:25:51.721Z,0.15
2017-02-27T04:26:51.694Z,0.13
2017-02-27T04:27:51.701Z,0.12
2017-02-27T04:28:51.662Z,0.15
2017-02-27T04:29:51.652Z,0.15
2017-02-27T04:30:51.639Z,0.12
2017-02-27T04:31:51.609Z,0.15
2017-02-27T04:32:51.224Z,0.15
2017-02-27T04:33:51.192Z,0.12
2017-02-27T04:34:51.201Z,0.05
2017-02-27T04:35:51.536Z,0.12
2017-02-27T04:36:51.140Z,0.13
2017-02-27T04:37:51.142Z,0.04
2017-02-27T04:38:51.116Z,-0.02
2017-02-27T04:39:51.499Z,-0.05
2017-02-27T04:40:51.465Z,-0.06
2017-02-27T04:41:51.457Z,-0.03
2017-02-27T04:42:51.446Z,-0.05
2017-02-27T04:43:51.448Z,-0.03
2017-02-27T04:44:51.395Z,-0.09
2017-02-27T04:45:51.371Z,-0.06
2017-02-27T04:46:51.367Z,0.02
2017-02-27T04:47:51.365Z,-0.01
2017-02-27T04:48:51.366Z,0.08
2017-02-27T04:49:51.315Z,0.04
2017-02-27T04:50:51.307Z,0.13
2017-02-27T04:51:51.285Z,0.15
2017-02-27T04:52:51.283Z,0.2
2017-02-27T04:53:51.247Z,0.08
2017-02-27T04:54:51.244Z,0.05
2017-02-27T04:55:51.212Z,0.15
2017-02-27T04:56:51.199Z,0.04
2017-02-27T04:57:51.215Z,0.13
2017-02-27T04:58:51.190Z,0.1
2017-02-27T04:59:50.780Z,0.15
2017-02-27T05:00:51.148Z,0.1
2017-02-27T05:01:51.131Z,0.08
2017-02-27T05:02:51.126Z,-0.03
2017-02-27T05:03:51.100Z,0.05
2017-02-27T05:04:51.080Z,-0.03
2017-02-27T05:05:51.054Z,-0.02
2017-02-27T05:06:51.036Z,0.01
2017-02-27T05:07:51.070Z,0.15
2017-02-27T05:08:51.038Z,0.13
2017-02-27T05:09:51.036Z,0.16
2017-02-27T05:10:50.991Z,0.13
2017-02-27T05:11:50.991Z,0.2
2017-02-27T05:12:50.961Z,0.13
2017-02-27T05:13:50.584Z,0.05
2017-02-27T05:14:50.937Z,0.05
2017-02-27T05:15:50.929Z,0.07
2017-02-27T05:16:50.519Z,-0.01
2017-02-27T05:17:50.112Z,-0.03
2017-02-27T05:18:50.861Z,-0.05
2017-02-27T05:19:50.869Z,0.01
2017-02-27T05:20:50.433Z,0.1
2017-02-27T05:21:50.804Z,0.17
2017-02-27T05:22:50.410Z,0.2
2017-02-27T05:23:50.388Z,0.2
2017-02-27T05:24:50.763Z,0.26
2017-02-27T05:25:50.760Z,0.26
2017-02-27T05:26:50.741Z,0.28
2017-02-27T05:27:50.341Z,0.4
2017-02-27T05:28:50.706Z,0.34
2017-02-27T05:29:50.296Z,0.45
2017-02-27T05:30:50.290Z,0.37
2017-02-27T05:31:50.679Z,0.49
2017-02-27T05:32:50.269Z,0.41
2017-02-27T05:33:50.616Z,0.49
2017-02-27T05:34:50.602Z,0.56
2017-02-27T05:35:50.578Z,0.51
2017-02-27T05:36:50.583Z,0.35
2017-02-27T05:37:50.567Z,0.38
2017-02-27T05:38:50.545Z,0.31
2017-02-27T05:39:50.534Z,0.37
2017-02-27T05:40:50.528Z,0.33
2017-02-27T05:41:50.500Z,0.28
2017-02-27T05:42:50.470Z,0.28
2017-02-27T05:43:50.479Z,0.16
2017-02-27T05:44:50.451Z,0.25
2017-02-27T05:45:50.430Z,0.22
2017-02-27T05:46:50.421Z,0.31
2017-02-27T05:47:50.406Z,0.2
2017-02-27T05:48:50.402Z,0.22
2017-02-27T05:49:50.412Z,0.22
2017-02-27T05:50:50.381Z,0.2
2017-02-27T05:51:50.345Z,0.2
2017-02-27T05:52:50.334Z,0.07
2017-02-27T05:53:50.308Z,0.12
2017-02-27T05:54:50.295Z,0.19
2017-02-27T05:55:50.309Z,0.2
2017-02-27T05:56:50.281Z,0.23
2017-02-27T05:57:50.279Z,0.26
2017-02-27T05:58:50.239Z,0.16
2017-02-27T05:59:50.236Z,0.12
2017-02-27T06:00:50.238Z,0.01
2017-02-27T06:01:50.195Z,0.12
2017-02-27T06:02:50.185Z,0.02
2017-02-27T06:03:50.205Z,0.01
2017-02-27T06:04:50.182Z,-0.12
2017-02-27T06:05:50.146Z,-0.05
2017-02-27T06:06:49.760Z,-0.09
2017-02-27T06:07:50.101Z,0.12
2017-02-27T06:08:50.098Z,0.12
2017-02-27T06:09:50.086Z,0.13
2017-02-27T06:10:49.697Z,0.13
2017-02-27T06:11:49.679Z,0.2
2017-02-27T06:12:50.053Z,0.3
2017-02-27T06:13:49.633Z,0.37
2017-02-27T06:14:49.644Z,0.49
2017-02-27T06:15:49.608Z,0.51
2017-02-27T06:16:49.967Z,0.37
2017-02-27T06:17:49.570Z,0.31
2017-02-27T06:18:49.575Z,0.38
2017-02-27T06:19:49.926Z,0.49
2017-02-27T06:20:49.939Z,0.49
2017-02-27T06:21:49.931Z,0.53
2017-02-27T06:22:49.916Z,0.45
2017-02-27T06:23:49.881Z,0.44
2017-02-27T06:24:49.879Z,0.37
2017-02-27T06:25:49.873Z,0.31
2017-02-27T06:26:49.831Z,0.16
2017-02-27T06:27:49.843Z,0.16
2017-02-27T06:28:49.846Z,0.12
2017-02-27T06:29:49.799Z,0.2
2017-02-27T06:30:49.796Z,0.22
2017-02-27T06:31:49.775Z,0.1
2017-02-27T06:32:49.788Z,0.15
2017-02-27T06:33:49.736Z,0.15
2017-02-27T06:34:49.720Z,0.2
2017-02-27T06:35:49.754Z,0.33
2017-02-27T06:36:49.708Z,0.31
2017-02-27T06:37:49.674Z,0.48
2017-02-27T06:38:49.644Z,0.56
2017-02-27T06:39:49.650Z,0.53
2017-02-27T06:40:49.647Z,0.45
2017-02-27T06:41:49.617Z,0.51
2017-02-27T06:42:49.611Z,0.63
2017-02-27T06:43:49.575Z,0.95
2017-02-27T06:44:49.569Z,1.18
2017-02-27T06:45:49.558Z,1.5
2017-02-27T06:46:49.549Z,1.44
2017-02-27T06:47:49.532Z,1.29
2017-02-27T06:48:49.501Z,1.18
2017-02-27T06:49:49.493Z,1.21
2017-02-27T06:50:49.474Z,1.16
2017-02-27T06:51:49.481Z,0.96
2017-02-27T06:52:49.452Z,1.02
2017-02-27T06:53:49.473Z,1.25
2017-02-27T06:54:49.426Z,1.08
2017-02-27T06:55:49.425Z,1.21
2017-02-27T06:56:49.390Z,1.2
2017-02-27T06:57:49.401Z,1.2
2017-02-27T06:58:49.399Z,1.31
2017-02-27T06:59:49.362Z,1.52
2017-02-27T07:00:49.355Z,1.6
2017-02-27T07:01:48.945Z,1.63
2017-02-27T07:02:49.320Z,1.49
2017-02-27T07:03:49.318Z,1.43
2017-02-27T07:04:49.308Z,1.49
2017-02-27T07:05:49.291Z,1.42
2017-02-27T07:06:49.262Z,1.6
2017-02-27T07:07:49.256Z,1.65
2017-02-27T07:08:49.233Z,1.61
2017-02-27T07:09:49.219Z,1.43
2017-02-27T07:10:49.210Z,1.17
2017-02-27T07:11:49.190Z,1.13
2017-02-27T07:12:49.192Z,1.1
2017-02-27T07:13:49.162Z,1.14
2017-02-27T07:14:49.166Z,1.06
2017-02-27T07:15:49.143Z,0.92
2017-02-27T07:16:49.130Z,0.75
2017-02-27T07:17:49.104Z,0.51
2017-02-27T07:18:49.102Z,0.48
2017-02-27T07:19:48.695Z,0.48
2017-02-27T07:20:49.068Z,0.45
2017-02-27T07:21:49.036Z,0.63
2017-02-27T07:22:49.043Z,0.6
2017-02-27T07:23:49.007Z,0.64
2017-02-27T07:24:49.007Z,0.82
2017-02-27T07:25:48.588Z,0.89
2017-02-27T07:26:48.974Z,0.92
2017-02-27T07:27:48.960Z,0.95
2017-02-27T07:28:48.928Z,1.16
2017-02-27T07:29:48.927Z,1.17
2017-02-27T07:30:48.919Z,1.16
2017-02-27T07:31:48.919Z,1.06
2017-02-27T07:32:48.485Z,1
2017-02-27T07:33:48.862Z,0.78
2017-02-27T07:34:48.834Z,0.67
2017-02-27T07:35:48.858Z,0.57
2017-02-27T07:36:48.826Z,0.48
2017-02-27T07:37:48.825Z,0.31
2017-02-27T07:38:48.802Z,0.17
2017-02-27T07:39:48.771Z,0.17
2017-02-27T07:40:48.789Z,0.35
2017-02-27T07:41:48.753Z,0.41
2017-02-27T07:42:48.714Z,0.33
2017-02-27T07:43:48.317Z,0.49
2017-02-27T07:44:48.697Z,0.78
2017-02-27T07:45:48.694Z,0.81
2017-02-27T07:46:48.672Z,1.26
2017-02-27T07:47:48.662Z,1.88
2017-02-27T07:48:48.649Z,2.51
2017-02-27T07:49:48.244Z,2.61
2017-02-27T07:50:48.651Z,2.61
2017-02-27T07:51:48.589Z,2.53
2017-02-27T07:52:48.574Z,2.69
2017-02-27T07:53:48.557Z,2.92
2017-02-27T07:54:48.552Z,2.66
2017-02-27T07:55:48.562Z,2.79
2017-02-27T07:56:48.517Z,3.1
2017-02-27T07:57:48.490Z,3.42
2017-02-27T07:58:48.494Z,3.35
2017-02-27T07:59:48.478Z,3.52
2017-02-27T08:00:48.487Z,4.07
2017-02-27T08:01:48.428Z,3.95
2017-02-27T08:02:48.432Z,3.95
2017-02-27T08:03:48.411Z,4.11
2017-02-27T08:04:48.428Z,3.5
2017-02-27T08:05:48.391Z,3.26
2017-02-27T08:06:48.391Z,3.84
2017-02-27T08:07:48.369Z,3.92
2017-02-27T08:08:48.348Z,3.99
2017-02-27T08:09:48.325Z,4.36
2017-02-27T08:10:47.976Z,4.34
2017-02-27T08:11:48.304Z,4.67
2017-02-27T08:12:48.290Z,5.15
2017-02-27T08:13:48.291Z,5.41
2017-02-27T08:14:48.260Z,4.9
2017-02-27T08:15:48.264Z,5.23
2017-02-27T08:16:48.252Z,5.29
2017-02-27T08:17:48.219Z,5.15
2017-02-27T08:18:48.229Z,4.67
2017-02-27T08:19:48.209Z,4.74
2017-02-27T08:20:48.187Z,4.88
2017-02-27T08:21:48.185Z,5.24
2017-02-27T08:22:47.771Z,5.24
2017-02-27T08:23:48.148Z,5.47
2017-02-27T08:24:48.146Z,5.48
2017-02-27T08:25:48.110Z,5.93
2017-02-27T08:26:48.116Z,5.95
2017-02-27T08:27:48.119Z,6.79
2017-02-27T08:28:48.073Z,6.83
2017-02-27T08:29:48.070Z,7.04
2017-02-27T08:30:48.062Z,6.99
2017-02-27T08:31:48.037Z,6.72
2017-02-27T08:32:48.064Z,6.3
2017-02-27T08:33:48.033Z,6.38
2017-02-27T08:34:48.005Z,5.75
2017-02-27T08:35:48.030Z,5.84
2017-02-27T08:36:48.003Z,6.03
2017-02-27T08:37:47.988Z,5.9
2017-02-27T08:38:47.984Z,5.98
2017-02-27T08:39:47.963Z,5.55
2017-02-27T08:40:47.941Z,5.56
2017-02-27T08:41:47.927Z,5.42
2017-02-27T08:42:47.933Z,5.41
2017-02-27T08:43:47.922Z,5.83
2017-02-27T08:44:47.917Z,5.48
2017-02-27T08:45:47.894Z,4.42
2017-02-27T08:46:47.885Z,3.8
2017-02-27T08:47:47.866Z,4.49
2017-02-27T08:48:47.875Z,5.42
2017-02-27T08:49:47.857Z,6.35
2017-02-27T08:50:47.448Z,6.25
2017-02-27T08:51:47.847Z,5.83
2017-02-27T08:52:47.418Z,5.8
2017-02-27T08:53:47.795Z,6.11
2017-02-27T08:54:47.796Z,5.8
2017-02-27T08:55:47.785Z,5.63
2017-02-27T08:56:47.763Z,5.22
2017-02-27T08:57:47.752Z,5.29
2017-02-27T08:58:47.735Z,4.79
2017-02-27T08:59:47.755Z,3.01
2017-02-27T09:00:47.715Z,2.8
2017-02-27T09:01:47.740Z,2.27
2017-02-27T09:02:47.329Z,2.29
2017-02-27T09:03:47.675Z,2.47
2017-02-27T09:04:47.680Z,3.05
2017-02-27T09:05:47.663Z,4.1
2017-02-27T09:06:47.625Z,5.12
2017-02-27T09:07:47.657Z,5.42
2017-02-27T09:08:47.633Z,5.67
2017-02-27T09:09:47.600Z,5.98
2017-02-27T09:10:47.577Z,5.47
2017-02-27T09:11:47.578Z,4.86
2017-02-27T09:12:47.178Z,4.54
2017-02-27T09:13:47.576Z,3.98
2017-02-27T09:14:47.150Z,4.59
2017-02-27T09:15:47.511Z,5.32
2017-02-27T09:16:47.118Z,5.06
2017-02-27T09:17:47.509Z,5.51
2017-02-27T09:18:47.498Z,5.62
2017-02-27T09:19:47.093Z,5.92
2017-02-27T09:20:47.466Z,5.67
2017-02-27T09:21:47.097Z,5.24
2017-02-27T09:22:46.678Z,4.51
2017-02-27T09:23:47.055Z,4.49
2017-02-27T09:24:47.014Z,4.83
2017-02-27T09:25:47.388Z,4.79
2017-02-27T09:26:47.399Z,4.51
2017-02-27T09:27:47.391Z,4.86
2017-02-27T09:28:47.353Z,5.08
2017-02-27T09:29:47.344Z,4.97
2017-02-27T09:30:47.345Z,5.52
2017-02-27T09:31:47.312Z,5.55
2017-02-27T09:32:47.304Z,5.75
2017-02-27T09:33:47.326Z,5.74
2017-02-27T09:34:47.310Z,5.63
2017-02-27T09:35:47.289Z,5.38
2017-02-27T09:36:47.283Z,5.44
2017-02-27T09:37:47.260Z,5.32
2017-02-27T09:38:47.240Z,4.91
2017-02-27T09:39:47.213Z,5.04
2017-02-27T09:40:47.222Z,5.15
2017-02-27T09:41:47.177Z,5.55
2017-02-27T09:42:47.168Z,5.47
2017-02-27T09:43:47.180Z,5.26
2017-02-27T09:44:47.153Z,4.34
2017-02-27T09:45:47.126Z,3.95
2017-02-27T09:46:47.127Z,3.71
2017-02-27T09:47:47.126Z,3.63
2017-02-27T09:48:47.088Z,3.6
2017-02-27T09:49:47.099Z,3.41
2017-02-27T09:50:47.103Z,2.95
2017-02-27T09:51:47.077Z,2.12
2017-02-27T09:52:47.046Z,2.08
2017-02-27T09:53:47.030Z,2.09
2017-02-27T09:54:47.016Z,2.18
2017-02-27T09:55:47.002Z,2.37
2017-02-27T09:56:47.016Z,2.08
2017-02-27T09:57:46.975Z,1.92
2017-02-27T09:58:46.963Z,1.92
2017-02-27T09:59:46.962Z,1.85
2017-02-27T10:00:46.972Z,1.67
2017-02-27T10:01:46.925Z,1.67
2017-02-27T10:02:46.904Z,1.72
2017-02-27T10:03:46.895Z,1.42
2017-02-27T10:04:46.891Z,1.5
2017-02-27T10:05:46.873Z,1.52
2017-02-27T10:06:46.858Z,1.57
2017-02-27T10:07:46.820Z,1.6
2017-02-27T10:08:46.834Z,1.47
2017-02-27T10:09:46.813Z,1.54
2017-02-27T10:10:46.801Z,1.39
2017-02-27T10:11:46.763Z,1.43
2017-02-27T10:12:46.774Z,1.5
2017-02-27T10:13:46.754Z,1.65
2017-02-27T10:14:46.727Z,1.17
2017-02-27T10:15:46.318Z,1.1
2017-02-27T10:16:46.693Z,1.47
2017-02-27T10:17:46.688Z,1.93
2017-02-27T10:18:46.663Z,2.4
2017-02-27T10:19:46.279Z,2.81
2017-02-27T10:20:46.645Z,2.44
2017-02-27T10:21:46.606Z,2.66
2017-02-27T10:22:46.616Z,2.11
2017-02-27T10:23:46.597Z,1.92
2017-02-27T10:24:46.571Z,2.01
2017-02-27T10:25:46.554Z,1.65
2017-02-27T10:26:46.555Z,1.95
2017-02-27T10:27:46.532Z,2
2017-02-27T10:28:46.130Z,1.88
2017-02-27T10:29:46.510Z,1.71
2017-02-27T10:30:46.507Z,1.57
2017-02-27T10:31:46.468Z,1.7
2017-02-27T10:32:46.453Z,1.82
2017-02-27T10:33:46.436Z,1.88
2017-02-27T10:34:46.430Z,1.81
2017-02-27T10:35:46.398Z,1.52
2017-02-27T10:36:46.389Z,1.82
2017-02-27T10:37:46.364Z,1.68
2017-02-27T10:38:46.350Z,1.67
2017-02-27T10:39:46.368Z,1.79
2017-02-27T10:40:46.340Z,2.38
2017-02-27T10:41:46.333Z,2.68
2017-02-27T10:42:46.292Z,2.83
2017-02-27T10:43:46.281Z,2.66
2017-02-27T10:44:46.280Z,2.97
2017-02-27T10:45:46.256Z,2.05
2017-02-27T10:46:46.234Z,1.98
2017-02-27T10:47:46.243Z,2.53
2017-02-27T10:48:46.206Z,2.56
2017-02-27T10:49:46.198Z,2.48
2017-02-27T10:50:46.182Z,2.71
2017-02-27T10:51:46.191Z,2.79
2017-02-27T10:52:46.139Z,3.07
2017-02-27T10:53:46.129Z,3.25
2017-02-27T10:54:46.104Z,2.47
2017-02-27T10:55:46.091Z,1.65
2017-02-27T10:56:46.118Z,1.5
2017-02-27T10:57:46.066Z,1.44
2017-02-27T10:58:46.064Z,1.47
2017-02-27T10:59:46.037Z,0.82
2017-02-27T11:00:46.038Z,0.49
2017-02-27T11:01:46.040Z,0.68
2017-02-27T11:02:45.994Z,1.02
2017-02-27T11:03:45.977Z,1.17
2017-02-27T11:04:45.965Z,1.34
2017-02-27T11:05:45.953Z,1.47
2017-02-27T11:06:45.927Z,1.68
2017-02-27T11:07:45.937Z,1.49
2017-02-27T11:08:45.913Z,1.63
2017-02-27T11:09:45.889Z,1.71
2017-02-27T11:10:45.868Z,1.82
2017-02-27T11:11:45.843Z,1.74
2017-02-27T11:12:45.843Z,1.64
2017-02-27T11:13:45.845Z,1.63
2017-02-27T11:14:45.812Z,1.82
2017-02-27T11:15:45.790Z,1.6
2017-02-27T11:16:45.781Z,1.67
2017-02-27T11:17:45.771Z,1.44
2017-02-27T11:18:45.756Z,1.63
2017-02-27T11:19:45.761Z,2.08
2017-02-27T11:20:45.732Z,1.85
2017-02-27T11:21:45.711Z,1.64
2017-02-27T11:22:45.681Z,1.6
2017-02-27T11:23:45.700Z,1.44
2017-02-27T11:24:45.675Z,1.67
2017-02-27T11:25:45.647Z,1.88
2017-02-27T11:26:45.623Z,1.98
2017-02-27T11:27:45.617Z,1.9
2017-02-27T11:28:45.583Z,1.46
2017-02-27T11:29:45.593Z,1.44
2017-02-27T11:30:45.559Z,1.26
2017-02-27T11:31:45.564Z,1.56
2017-02-27T11:32:45.538Z,1.79
2017-02-27T11:33:45.518Z,2.14
2017-02-27T11:34:45.484Z,2.55
2017-02-27T11:35:45.494Z,2.63
2017-02-27T11:36:45.474Z,2.26
2017-02-27T11:37:45.453Z,2.07
2017-02-27T11:38:45.439Z,2.22
2017-02-27T11:39:45.432Z,1.82
2017-02-27T11:40:45.414Z,1.29
2017-02-27T11:41:45.380Z,1.18
2017-02-27T11:42:45.387Z,0.93
2017-02-27T11:43:45.341Z,1.17
2017-02-27T11:44:44.958Z,1.06
2017-02-27T11:45:45.367Z,0.48
2017-02-27T11:46:45.301Z,0.84
2017-02-27T11:47:45.288Z,0.82
2017-02-27T11:48:45.281Z,0.51
2017-02-27T11:49:44.888Z,0.45
2017-02-27T11:50:45.265Z,0.25
2017-02-27T11:51:45.230Z,0.64
2017-02-27T11:52:45.225Z,1.14
2017-02-27T11:53:45.202Z,2
2017-02-27T11:54:45.227Z,2.32
2017-02-27T11:55:45.197Z,2.43
2017-02-27T11:56:45.162Z,1.95
2017-02-27T11:57:45.138Z,1.75
2017-02-27T11:58:45.123Z,1.68
2017-02-27T11:59:45.117Z,1.86
2017-02-27T12:00:45.080Z,2.19
2017-02-27T12:01:45.069Z,2.32
2017-02-27T12:02:45.075Z,2.27
2017-02-27T12:03:45.061Z,2.01
2017-02-27T12:04:45.031Z,2.45
2017-02-27T12:05:45.039Z,2.51
2017-02-27T12:06:45.036Z,2.3
2017-02-27T12:07:44.997Z,1.71
2017-02-27T12:08:44.982Z,1.53
2017-02-27T12:09:44.971Z,1.39
2017-02-27T12:10:44.952Z,1.2
2017-02-27T12:11:44.932Z,1.08
2017-02-27T12:12:44.923Z,1.67
2017-02-27T12:13:44.896Z,1.77
2017-02-27T12:14:44.890Z,1.28
2017-02-27T12:15:44.485Z,1.95
2017-02-27T12:16:44.470Z,2.14
2017-02-27T12:17:44.845Z,1.71
2017-02-27T12:18:44.830Z,1.86
2017-02-27T12:19:44.446Z,2.51
2017-02-27T12:20:44.823Z,2.37
2017-02-27T12:21:44.777Z,2.18
2017-02-27T12:22:44.975Z,1.42
2017-02-27T12:23:44.560Z,1.47
2017-02-27T12:24:44.735Z,1.16
2017-02-27T12:25:44.724Z,1.06
2017-02-27T12:26:44.696Z,0.89
2017-02-27T12:27:44.313Z,0.72
2017-02-27T12:28:44.309Z,0.75
2017-02-27T12:29:44.672Z,1.63
2017-02-27T12:30:44.636Z,2.02
2017-02-27T12:31:44.640Z,2.01
2017-02-27T12:32:44.635Z,1.85
2017-02-27T12:33:44.634Z,1.5
2017-02-27T12:34:44.208Z,1.25
2017-02-27T12:35:44.567Z,1.79
2017-02-27T12:36:44.558Z,2.07
2017-02-27T12:37:44.540Z,1.93
2017-02-27T12:38:44.522Z,2.18
2017-02-27T12:39:44.536Z,2.27
2017-02-27T12:40:44.520Z,2.08
2017-02-27T12:41:44.474Z,2.74
2017-02-27T12:42:44.479Z,3.22
2017-02-27T12:43:44.447Z,3.59
2017-02-27T12:44:44.448Z,2.81
2017-02-27T12:45:44.448Z,1.88
2017-02-27T12:46:44.411Z,1.85
2017-02-27T12:47:44.403Z,2.8
2017-02-27T12:48:43.993Z,3.19
2017-02-27T12:49:44.366Z,3.63
2017-02-27T12:50:43.956Z,3.26
2017-02-27T12:51:44.337Z,3.1
2017-02-27T12:52:44.562Z,3.72
2017-02-27T12:53:43.915Z,4.49
2017-02-27T12:54:44.278Z,5.09
2017-02-27T12:55:44.289Z,5.63
2017-02-27T12:56:44.263Z,2.97
2017-02-27T12:57:44.270Z,1.95
2017-02-27T12:58:44.233Z,2.32
2017-02-27T12:59:43.823Z,2.98
2017-02-27T13:00:44.207Z,2.77
2017-02-27T13:01:44.196Z,3.78
2017-02-27T13:02:43.801Z,4.51
2017-02-27T13:03:44.151Z,4.97
2017-02-27T13:04:44.357Z,4.13
2017-02-27T13:05:44.141Z,4.28
2017-02-27T13:06:44.140Z,4.25
2017-02-27T13:07:44.121Z,4.51
2017-02-27T13:08:44.099Z,5.04
2017-02-27T13:09:44.091Z,5.81
2017-02-27T13:10:44.071Z,6.27
2017-02-27T13:11:44.050Z,6.1
2017-02-27T13:12:44.051Z,5.96
2017-02-27T13:13:44.036Z,5.99
2017-02-27T13:14:44.039Z,5.93
2017-02-27T13:15:44.030Z,6.08
2017-02-27T13:16:44.032Z,7.04
2017-02-27T13:17:43.986Z,7.41
2017-02-27T13:18:43.965Z,7.71
2017-02-27T13:19:43.989Z,7.54
2017-02-27T13:20:43.963Z,6.69
2017-02-27T13:21:43.968Z,5.95
2017-02-27T13:22:43.919Z,5.88
2017-02-27T13:23:43.911Z,6.13
2017-02-27T13:24:43.941Z,5.99
2017-02-27T13:25:43.882Z,5.35
2017-02-27T13:26:43.901Z,4.87
2017-02-27T13:27:43.893Z,4.42
2017-02-27T13:28:44.067Z,5.05
2017-02-27T13:29:43.876Z,5.3